createdAt,value
2018-09-28T00:00:51.890Z,0
2018-09-28T00:02:06.568Z,0
2018-09-28T00:02:51.669Z,0
2018-09-28T00:03:51.696Z,0
2018-09-28T00:05:06.638Z,0
2018-09-28T00:05:51.993Z,0
2018-09-28T00:07:06.470Z,0
2018-09-28T00:07:52.049Z,0
2018-09-28T00:08:52.060Z,0
2018-09-28T00:09:52.080Z,0
2018-09-28T00:10:51.846Z,0
2018-09-28T00:11:51.876Z,0
2018-09-28T00:12:51.937Z,0
2018-09-28T00:14:06.834Z,0
2018-09-28T00:14:52.188Z,0
2018-09-28T00:15:52.223Z,0
2018-09-28T00:16:51.973Z,0
2018-09-28T00:17:52.255Z,0
2018-09-28T00:18:52.015Z,0
2018-09-28T00:19:52.296Z,0
2018-09-28T00:20:51.800Z,0
2018-09-28T00:21:52.349Z,0
2018-09-28T00:23:07.021Z,0
2018-09-28T00:23:52.388Z,0
2018-09-28T00:25:07.117Z,0
2018-09-28T00:25:52.271Z,0
2018-09-28T00:26:52.446Z,0
2018-09-28T00:27:52.474Z,0
2018-09-28T00:28:52.505Z,0
2018-09-28T00:29:52.512Z,0
2018-09-28T00:31:07.190Z,0
2018-09-28T00:32:07.217Z,0
2018-09-28T00:32:52.576Z,0
2018-09-28T00:34:07.263Z,0
2018-09-28T00:34:52.618Z,0
2018-09-28T00:35:52.582Z,0
2018-09-28T00:36:52.670Z,0
2018-09-28T00:38:07.345Z,0
2018-09-28T00:39:07.363Z,0
2018-09-28T00:39:52.730Z,0
2018-09-28T00:40:52.495Z,0
2018-09-28T00:41:52.248Z,0
2018-09-28T00:43:07.444Z,0
2018-09-28T00:43:52.547Z,0
2018-09-28T00:44:52.834Z,0
2018-09-28T00:45:52.849Z,0
2018-09-28T00:46:52.878Z,0
2018-09-28T00:47:52.635Z,0
2018-09-28T00:48:52.913Z,0
2018-09-28T00:49:52.932Z,0
2018-09-28T00:50:52.698Z,0
2018-09-28T00:51:52.979Z,0
2018-09-28T00:52:52.994Z,0
2018-09-28T00:53:53.021Z,0
2018-09-28T00:55:07.453Z,0
2018-09-28T00:55:52.805Z,0
2018-09-28T00:56:53.082Z,0
2018-09-28T00:57:52.846Z,0
2018-09-28T00:58:53.122Z,0
2018-09-28T00:59:53.150Z,0
2018-09-28T01:00:52.653Z,0
2018-09-28T01:01:53.187Z,0
2018-09-28T01:02:53.232Z,0
2018-09-28T01:03:52.815Z,0
2018-09-28T01:04:53.258Z,0
2018-09-28T01:05:53.281Z,0
2018-09-28T01:06:53.299Z,0
2018-09-28T01:07:53.318Z,0
2018-09-28T01:09:53.362Z,0
2018-09-28T01:11:08.037Z,0
2018-09-28T01:13:08.083Z,0
2018-09-28T01:13:53.443Z,0
2018-09-28T01:15:53.492Z,0
2018-09-28T01:16:53.508Z,0
2018-09-28T01:17:53.526Z,0
2018-09-28T01:18:53.346Z,0
2018-09-28T01:19:53.312Z,0
2018-09-28T01:20:53.079Z,0
2018-09-28T01:21:53.616Z,0
2018-09-28T01:22:53.689Z,0
2018-09-28T01:23:53.656Z,0
2018-09-28T01:24:53.673Z,0
2018-09-28T01:25:53.695Z,0
2018-09-28T01:27:08.386Z,0
2018-09-28T01:28:08.397Z,0
2018-09-28T01:28:53.756Z,0
2018-09-28T01:29:53.778Z,0
2018-09-28T01:31:08.457Z,0
2018-09-28T01:31:53.562Z,0
2018-09-28T01:32:53.588Z,0
2018-09-28T01:33:53.346Z,0
2018-09-28T01:34:53.879Z,0
2018-09-28T01:35:53.906Z,0
2018-09-28T01:36:53.927Z,0
2018-09-28T01:37:53.687Z,0
2018-09-28T01:38:54.017Z,0
2018-09-28T01:39:53.987Z,0
2018-09-28T01:40:54.007Z,0
2018-09-28T01:42:08.432Z,0
2018-09-28T01:42:53.829Z,0
2018-09-28T01:43:53.819Z,0
2018-09-28T01:44:54.106Z,0
2018-09-28T01:45:54.112Z,0
2018-09-28T01:46:54.141Z,0
2018-09-28T01:47:53.639Z,0
2018-09-28T01:48:54.179Z,0
2018-09-28T01:49:54.208Z,0
2018-09-28T01:51:08.878Z,0
2018-09-28T01:51:53.982Z,0
2018-09-28T01:52:54.001Z,0
2018-09-28T01:53:54.288Z,0
2018-09-28T01:54:54.040Z,0
2018-09-28T01:55:54.325Z,0
2018-09-28T01:56:54.355Z,0
2018-09-28T01:58:09.126Z,0
2018-09-28T01:58:54.385Z,0
2018-09-28T02:00:09.066Z,0
2018-09-28T02:00:54.426Z,0
2018-09-28T02:02:54.211Z,0
2018-09-28T02:03:54.498Z,0
2018-09-28T02:05:54.533Z,0
2018-09-28T02:06:54.044Z,0
2018-09-28T02:07:54.573Z,0
2018-09-28T02:08:54.594Z,0
2018-09-28T02:09:54.622Z,0
2018-09-28T02:10:54.635Z,0
2018-09-28T02:11:54.656Z,0
2018-09-28T02:13:09.337Z,0
2018-09-28T02:14:09.099Z,0
2018-09-28T02:14:54.721Z,0
2018-09-28T02:15:54.710Z,0
2018-09-28T02:16:54.505Z,0
2018-09-28T02:18:09.469Z,0
2018-09-28T02:18:54.283Z,0
2018-09-28T02:20:09.488Z,0
2018-09-28T02:21:54.606Z,0
2018-09-28T02:22:54.887Z,0
2018-09-28T02:23:54.902Z,0
2018-09-28T02:24:55.378Z,0
2018-09-28T02:25:54.951Z,0
2018-09-28T02:26:54.968Z,0
2018-09-28T02:28:09.649Z,0
2018-09-28T02:28:55.010Z,0
2018-09-28T02:30:09.697Z,0
2018-09-28T02:30:54.810Z,0
2018-09-28T02:31:54.812Z,0
2018-09-28T02:32:55.095Z,0
2018-09-28T02:34:09.257Z,0
2018-09-28T02:35:09.277Z,0
2018-09-28T02:35:55.156Z,0
2018-09-28T02:36:54.927Z,0
2018-09-28T02:37:55.204Z,0
2018-09-28T02:38:55.217Z,0
2018-09-28T02:40:09.380Z,0
2018-09-28T02:40:55.005Z,0
2018-09-28T02:41:55.289Z,0
2018-09-28T02:42:55.038Z,0
2018-09-28T02:43:54.801Z,0
2018-09-28T02:46:09.762Z,0
2018-09-28T02:46:55.133Z,0
2018-09-28T02:47:55.405Z,0
2018-09-28T02:48:55.424Z,0
2018-09-28T02:49:55.192Z,0
2018-09-28T02:50:55.214Z,0
2018-09-28T02:52:55.514Z,0
2018-09-28T02:53:55.268Z,0
2018-09-28T02:54:55.034Z,0
2018-09-28T02:55:55.569Z,0
2018-09-28T02:56:55.875Z,0
2018-09-28T02:57:55.605Z,0
2018-09-28T02:58:55.643Z,0
2018-09-28T02:59:55.401Z,0
2018-09-28T03:00:55.681Z,0
2018-09-28T03:02:10.354Z,0
2018-09-28T03:03:10.371Z,0
2018-09-28T03:03:55.736Z,0
2018-09-28T03:04:55.754Z,0
2018-09-28T03:06:55.798Z,0
2018-09-28T03:07:55.817Z,0
2018-09-28T03:08:55.585Z,0
2018-09-28T03:09:55.854Z,0
2018-09-28T03:10:55.886Z,0
2018-09-28T03:12:10.300Z,0
2018-09-28T03:13:10.318Z,0
2018-09-28T03:14:55.969Z,0
2018-09-28T03:15:55.724Z,0
2018-09-28T03:17:10.669Z,0
2018-09-28T03:18:10.684Z,0
2018-09-28T03:18:56.100Z,0
2018-09-28T03:19:55.809Z,0
2018-09-28T03:20:56.085Z,0
2018-09-28T03:21:56.113Z,0
2018-09-28T03:23:56.154Z,0
2018-09-28T03:24:55.662Z,0
2018-09-28T03:25:56.650Z,0
2018-09-28T03:26:56.217Z,0
2018-09-28T03:28:10.897Z,0
2018-09-28T03:28:56.259Z,0
2018-09-28T03:29:56.012Z,0
2018-09-28T03:31:10.700Z,0
2018-09-28T03:31:56.062Z,0
2018-09-28T03:32:56.078Z,0
2018-09-28T03:33:56.125Z,0
2018-09-28T03:34:56.380Z,0
2018-09-28T03:35:56.396Z,0
2018-09-28T03:36:56.161Z,0
2018-09-28T03:38:56.457Z,0
2018-09-28T03:39:56.221Z,0
2018-09-28T03:41:56.266Z,0
2018-09-28T03:42:56.283Z,0
2018-09-28T03:43:56.563Z,0
2018-09-28T03:44:56.581Z,0
2018-09-28T03:45:56.603Z,0
2018-09-28T03:46:56.622Z,0
2018-09-28T03:47:56.661Z,0
2018-09-28T03:49:11.066Z,0
2018-09-28T03:49:56.689Z,0
2018-09-28T03:50:56.460Z,0
2018-09-28T03:51:56.738Z,0
2018-09-28T03:53:11.405Z,0
2018-09-28T03:53:56.774Z,0
2018-09-28T03:54:56.532Z,0
2018-09-28T03:55:56.813Z,0
2018-09-28T03:57:11.490Z,0
2018-09-28T03:57:56.850Z,0
2018-09-28T03:58:56.875Z,0
2018-09-28T03:59:56.894Z,0
2018-09-28T04:00:56.914Z,0
2018-09-28T04:02:11.598Z,0
2018-09-28T04:02:57.205Z,0
2018-09-28T04:03:56.747Z,0
2018-09-28T04:05:11.397Z,0
2018-09-28T04:05:57.216Z,0
2018-09-28T04:06:56.783Z,0
2018-09-28T04:08:11.715Z,0
2018-09-28T04:08:57.095Z,0
2018-09-28T04:09:57.101Z,0
2018-09-28T04:10:57.120Z,0
2018-09-28T04:11:57.152Z,0
2018-09-28T04:12:57.170Z,0
2018-09-28T04:14:11.840Z,0
2018-09-28T04:14:57.309Z,0
2018-09-28T04:15:57.227Z,0
2018-09-28T04:16:57.248Z,0
2018-09-28T04:17:57.011Z,0
2018-09-28T04:18:57.284Z,0
2018-09-28T04:19:56.789Z,0
2018-09-28T04:21:11.995Z,0
2018-09-28T04:23:12.025Z,4
2018-09-28T04:23:57.398Z,4
2018-09-28T04:24:57.407Z,0
2018-09-28T04:25:57.440Z,4
2018-09-28T04:26:57.460Z,4
2018-09-28T04:28:12.131Z,4
2018-09-28T04:29:11.894Z,4
2018-09-28T04:29:57.252Z,4
2018-09-28T04:30:57.530Z,8
2018-09-28T04:32:11.953Z,8
2018-09-28T04:32:57.567Z,8
2018-09-28T04:33:57.596Z,12
2018-09-28T04:34:57.637Z,16
2018-09-28T04:35:57.637Z,16
2018-09-28T04:37:12.314Z,20
2018-09-28T04:37:57.682Z,24
2018-09-28T04:38:57.707Z,24
2018-09-28T04:39:57.711Z,32
2018-09-28T04:40:57.477Z,36
2018-09-28T04:41:57.496Z,44
2018-09-28T04:42:57.517Z,52
2018-09-28T04:43:57.023Z,60
2018-09-28T04:45:57.585Z,76
2018-09-28T04:46:57.598Z,84
2018-09-28T04:47:57.720Z,88
2018-09-28T04:48:57.643Z,96
2018-09-28T04:49:57.402Z,108
2018-09-28T04:50:57.946Z,120
2018-09-28T04:52:12.360Z,120
2018-09-28T04:52:57.733Z,128
2018-09-28T04:53:57.487Z,144
2018-09-28T04:54:57.505Z,156
2018-09-28T04:56:58.065Z,160
2018-09-28T04:57:58.088Z,144
2018-09-28T04:58:57.842Z,136
2018-09-28T04:59:58.130Z,128
2018-09-28T05:00:57.890Z,128
2018-09-28T05:02:58.189Z,156
2018-09-28T05:03:58.203Z,168
2018-09-28T05:04:58.224Z,192
2018-09-28T05:05:58.246Z,232
2018-09-28T05:06:58.272Z,272
2018-09-28T05:07:58.029Z,316
2018-09-28T05:08:58.052Z,360
2018-09-28T05:09:58.330Z,388
2018-09-28T05:10:58.352Z,416
2018-09-28T05:11:58.116Z,436
2018-09-28T05:13:13.078Z,468
2018-09-28T05:14:13.074Z,484
2018-09-28T05:14:58.438Z,496
2018-09-28T05:15:58.455Z,528
2018-09-28T05:16:58.518Z,564
2018-09-28T05:17:58.492Z,628
2018-09-28T05:18:58.262Z,700
2018-09-28T05:19:58.543Z,784
2018-09-28T05:20:58.563Z,792
2018-09-28T05:21:58.325Z,724
2018-09-28T05:22:58.441Z,724
2018-09-28T05:24:13.278Z,652
2018-09-28T05:25:13.358Z,564
2018-09-28T05:26:13.063Z,500
2018-09-28T05:26:58.678Z,452
2018-09-28T05:28:58.724Z,308
2018-09-28T05:29:58.744Z,304
2018-09-28T05:31:01.713Z,308
2018-09-28T05:31:59.102Z,308
2018-09-28T05:32:59.320Z,296
2018-09-28T05:33:58.829Z,276
2018-09-28T05:34:58.856Z,276
2018-09-28T05:35:58.611Z,284
2018-09-28T05:36:58.630Z,308
2018-09-28T05:37:58.646Z,324
2018-09-28T05:38:58.411Z,328
2018-09-28T05:40:13.609Z,356
2018-09-28T05:41:58.735Z,416
2018-09-28T05:42:59.011Z,432
2018-09-28T05:45:13.457Z,420
2018-09-28T05:45:58.820Z,440
2018-09-28T05:46:59.101Z,476
2018-09-28T05:47:58.874Z,500
2018-09-28T05:49:13.805Z,468
2018-09-28T05:49:59.163Z,436
2018-09-28T05:50:59.179Z,384
2018-09-28T05:51:59.202Z,352
2018-09-28T05:52:59.218Z,320
2018-09-28T05:54:58.743Z,332
2018-09-28T05:56:13.941Z,356
2018-09-28T05:56:59.050Z,368
2018-09-28T05:57:59.322Z,400
2018-09-28T05:58:59.352Z,432
2018-09-28T06:00:59.383Z,408
2018-09-28T06:01:59.149Z,356
2018-09-28T06:02:59.213Z,324
2018-09-28T06:03:59.451Z,316
2018-09-28T06:04:59.239Z,328
2018-09-28T06:05:59.233Z,360
2018-09-28T06:06:59.559Z,404
2018-09-28T06:07:59.533Z,440
2018-09-28T06:08:59.292Z,468
2018-09-28T06:09:59.316Z,500
2018-09-28T06:10:59.339Z,528
2018-09-28T06:12:14.276Z,536
2018-09-28T06:13:14.292Z,532
2018-09-28T06:13:59.660Z,500
2018-09-28T06:15:59.805Z,468
2018-09-28T06:18:00.066Z,516
2018-09-28T06:19:00.003Z,540
2018-09-28T06:19:59.549Z,556
2018-09-28T06:20:59.833Z,588
2018-09-28T06:21:59.819Z,660
2018-09-28T06:22:59.846Z,696
2018-09-28T06:23:59.912Z,704
2018-09-28T06:24:59.624Z,756
2018-09-28T06:26:00.224Z,832
2018-09-28T06:27:14.329Z,912
2018-09-28T06:27:59.952Z,948
2018-09-28T06:29:14.627Z,1016
2018-09-28T06:30:00.258Z,1132
2018-09-28T06:32:14.695Z,1428
2018-09-28T06:33:00.050Z,1440
2018-09-28T06:34:00.072Z,1572
2018-09-28T06:34:59.834Z,1676
2018-09-28T06:36:00.469Z,1716
2018-09-28T06:37:00.140Z,1608
2018-09-28T06:38:00.158Z,1536
2018-09-28T06:39:00.179Z,1640
2018-09-28T06:40:00.216Z,1768
2018-09-28T06:41:14.888Z,1944
2018-09-28T06:41:59.995Z,2116
2018-09-28T06:43:00.003Z,2212
2018-09-28T06:44:00.281Z,2260
2018-09-28T06:46:00.373Z,2076
2018-09-28T06:47:15.010Z,2076
2018-09-28T06:48:14.585Z,2212
2018-09-28T06:49:00.059Z,2348
2018-09-28T06:50:14.812Z,2620
2018-09-28T06:51:00.425Z,2868
2018-09-28T06:52:00.456Z,3212
2018-09-28T06:53:00.209Z,3584
2018-09-28T06:54:00.902Z,4272
2018-09-28T06:55:00.511Z,5076
2018-09-28T06:56:00.539Z,6360
2018-09-28T06:57:00.551Z,7088
2018-09-28T06:58:00.602Z,8008
2018-09-28T06:59:15.001Z,11684
2018-09-28T07:00:00.790Z,61376
2018-09-28T07:01:00.125Z,59200
2018-09-28T07:02:00.410Z,32672
2018-09-28T07:03:00.424Z,63424
2018-09-28T07:04:00.894Z,66880
2018-09-28T07:05:00.520Z,69952
2018-09-28T07:06:01.207Z,72768
2018-09-28T07:07:00.769Z,67840
2018-09-28T07:08:15.457Z,66368
2018-09-28T07:09:00.560Z,75040
2018-09-28T07:10:00.855Z,65568
2018-09-28T07:11:00.607Z,47744
2018-09-28T07:12:01.317Z,29920
2018-09-28T07:13:00.976Z,20320
2018-09-28T07:14:01.683Z,16992
2018-09-28T07:15:15.624Z,16320
2018-09-28T07:16:00.999Z,15976
2018-09-28T07:17:00.630Z,15460
2018-09-28T07:18:01.240Z,15216
2018-09-28T07:19:01.072Z,16556
2018-09-28T07:20:01.096Z,29184
2018-09-28T07:21:01.004Z,14908
2018-09-28T07:23:01.173Z,16192
2018-09-28T07:25:01.447Z,37056
2018-09-28T07:26:00.975Z,26336
2018-09-28T07:28:01.283Z,33568
2018-09-28T07:29:01.313Z,43264
2018-09-28T07:31:30.673Z,62112
2018-09-28T07:32:01.375Z,36992
2018-09-28T07:33:01.399Z,35136
2018-09-28T07:34:01.177Z,71904
2018-09-28T07:35:01.474Z,69568
2018-09-28T07:36:01.192Z,45728
2018-09-28T07:37:16.651Z,47104
2018-09-28T07:39:01.301Z,38816
2018-09-28T07:40:01.318Z,33408
2018-09-28T07:41:01.612Z,32768
2018-09-28T07:42:16.150Z,39296
2018-09-28T07:43:01.132Z,45696
2018-09-28T07:44:01.412Z,22464
2018-09-28T07:45:01.708Z,22592
2018-09-28T07:46:01.723Z,35904
2018-09-28T07:47:16.145Z,31264
2018-09-28T07:48:01.407Z,27680
2018-09-28T07:49:01.842Z,67648
2018-09-28T07:51:01.835Z,45696
2018-09-28T07:52:01.893Z,46464
2018-09-28T07:53:01.891Z,38816
2018-09-28T07:54:01.916Z,43680
2018-09-28T07:55:01.942Z,41344
2018-09-28T07:56:01.828Z,56672
2018-09-28T07:57:01.728Z,49728
2018-09-28T07:58:02.014Z,45888
2018-09-28T07:59:02.033Z,33760
2018-09-28T08:00:02.065Z,29472
2018-09-28T08:01:01.826Z,34496
2018-09-28T08:02:16.769Z,46336
2018-09-28T08:03:02.138Z,51200
2018-09-28T08:04:02.224Z,53760
2018-09-28T08:05:02.185Z,47360
2018-09-28T08:06:02.219Z,24160
2018-09-28T08:08:02.260Z,48576
2018-09-28T08:09:02.280Z,58496
2018-09-28T08:10:02.053Z,23424
2018-09-28T08:11:16.992Z,55296
2018-09-28T08:12:17.120Z,35296
2018-09-28T08:13:02.386Z,22336
2018-09-28T08:14:02.156Z,28416
2018-09-28T08:15:02.179Z,23584
2018-09-28T08:17:02.477Z,22720
2018-09-28T08:18:02.598Z,17888
2018-09-28T08:19:02.555Z,16524
2018-09-28T08:20:02.567Z,24800
2018-09-28T08:21:02.584Z,26336
2018-09-28T08:22:02.603Z,37440
2018-09-28T08:23:02.632Z,36736
2018-09-28T08:24:02.658Z,24128
2018-09-28T08:25:02.677Z,14100
2018-09-28T08:26:17.363Z,16424
2018-09-28T08:27:17.411Z,40800
2018-09-28T08:28:02.750Z,14244
2018-09-28T08:29:02.522Z,34272
2018-09-28T08:30:03.006Z,45856
2018-09-28T08:31:02.832Z,42848
2018-09-28T08:32:02.856Z,43232
2018-09-28T08:33:02.868Z,41824
2018-09-28T08:34:17.558Z,40640
2018-09-28T08:35:02.664Z,39296
2018-09-28T08:36:02.960Z,30112
2018-09-28T08:37:02.714Z,19360
2018-09-28T08:38:02.997Z,19232
2018-09-28T08:39:02.759Z,15328
2018-09-28T08:40:03.056Z,14808
2018-09-28T08:41:03.070Z,15488
2018-09-28T08:42:03.426Z,24928
2018-09-28T08:43:02.892Z,30592
2018-09-28T08:44:03.151Z,32768
2018-09-28T08:45:03.271Z,34880
2018-09-28T08:46:03.293Z,32512
2018-09-28T08:47:02.962Z,34432
2018-09-28T08:48:03.240Z,33696
2018-09-28T08:49:03.053Z,33376
2018-09-28T08:50:32.612Z,32992
2018-09-28T08:52:03.342Z,31360
2018-09-28T08:53:03.367Z,24736
2018-09-28T08:54:03.389Z,23520
2018-09-28T08:55:03.168Z,21472
2018-09-28T08:56:03.447Z,20096
2018-09-28T08:57:03.462Z,19328
2018-09-28T08:58:03.493Z,17632
2018-09-28T08:59:18.175Z,18752
2018-09-28T09:00:03.543Z,18368
2018-09-28T09:01:03.049Z,19552
2018-09-28T09:02:03.872Z,22976
2018-09-28T09:03:03.355Z,22464
2018-09-28T09:04:03.740Z,20064
2018-09-28T09:05:18.323Z,21888
2018-09-28T09:06:18.351Z,20064
2018-09-28T09:07:03.455Z,16960
2018-09-28T09:08:03.215Z,16672
2018-09-28T09:09:18.419Z,21280
2018-09-28T09:10:03.626Z,15764
2018-09-28T09:11:03.807Z,16272
2018-09-28T09:12:03.581Z,20544
2018-09-28T09:13:03.597Z,19008
2018-09-28T09:14:18.543Z,28768
2018-09-28T09:15:18.564Z,24704
2018-09-28T09:16:03.669Z,19744
2018-09-28T09:17:18.355Z,23904
2018-09-28T09:18:18.966Z,25312
2018-09-28T09:19:03.485Z,26656
2018-09-28T09:20:04.130Z,22752
2018-09-28T09:21:03.790Z,21824
2018-09-28T09:22:18.798Z,18336
2018-09-28T09:23:18.760Z,17056
2018-09-28T09:25:03.900Z,15632
2018-09-28T09:26:03.931Z,16040
2018-09-28T09:28:18.622Z,19200
2018-09-28T09:29:18.928Z,20640
2018-09-28T09:30:04.472Z,16384
2018-09-28T09:31:18.700Z,15432
2018-09-28T09:32:03.803Z,14648
2018-09-28T09:33:04.343Z,13656
2018-09-28T09:34:04.387Z,14944
2018-09-28T09:35:04.134Z,14672
2018-09-28T09:36:04.161Z,14556
2018-09-28T09:37:19.103Z,13976
2018-09-28T09:38:04.208Z,14612
2018-09-28T09:39:03.979Z,14020
2018-09-28T09:40:04.002Z,13704
2018-09-28T09:41:04.288Z,12696
2018-09-28T09:42:04.566Z,10520
2018-09-28T09:43:04.613Z,11212
2018-09-28T09:44:19.283Z,17952
2018-09-28T09:45:04.391Z,20768
2018-09-28T09:46:19.320Z,22016
2018-09-28T09:47:04.429Z,21728
2018-09-28T09:48:04.715Z,21792
2018-09-28T09:49:04.895Z,18144
2018-09-28T09:50:19.423Z,19264
2018-09-28T09:51:04.528Z,15492
2018-09-28T09:52:04.562Z,16384
2018-09-28T09:53:19.492Z,20576
2018-09-28T09:54:19.260Z,20448
2018-09-28T09:55:04.631Z,16424
2018-09-28T09:56:04.386Z,14668
2018-09-28T09:57:19.329Z,9464
2018-09-28T09:58:04.845Z,18656
2018-09-28T09:59:04.719Z,17760
2018-09-28T10:00:05.012Z,15856
2018-09-28T10:01:05.038Z,17984
2018-09-28T10:02:19.719Z,18080
2018-09-28T10:03:04.823Z,17952
2018-09-28T10:04:04.842Z,17664
2018-09-28T10:05:19.790Z,16264
2018-09-28T10:06:05.146Z,17536
2018-09-28T10:07:04.917Z,11096
2018-09-28T10:08:05.198Z,14224
2018-09-28T10:09:19.878Z,13028
2018-09-28T10:11:19.675Z,10076
2018-09-28T10:12:05.296Z,14212
2018-09-28T10:14:05.344Z,11148
2018-09-28T10:15:05.110Z,12520
2018-09-28T10:16:05.160Z,15084
2018-09-28T10:17:05.420Z,13544
2018-09-28T10:18:19.846Z,13184
2018-09-28T10:19:04.699Z,14320
2018-09-28T10:20:05.533Z,13880
2018-09-28T10:21:05.511Z,13612
2018-09-28T10:22:05.535Z,13480
2018-09-28T10:23:20.225Z,13496
2018-09-28T10:24:05.337Z,13268
2018-09-28T10:25:20.269Z,12868
2018-09-28T10:26:20.295Z,11620
2018-09-28T10:28:05.567Z,10896
2018-09-28T10:29:05.724Z,10644
2018-09-28T10:30:05.469Z,10428
2018-09-28T10:31:05.495Z,10044
2018-09-28T10:33:05.812Z,9036
2018-09-28T10:34:05.890Z,9016
2018-09-28T10:35:20.256Z,8428
2018-09-28T10:36:05.877Z,8092
2018-09-28T10:37:05.120Z,7868
2018-09-28T10:38:05.400Z,7376
2018-09-28T10:39:05.698Z,7208
2018-09-28T10:41:21.011Z,7728
2018-09-28T10:42:05.761Z,7932
2018-09-28T10:43:05.788Z,7976
2018-09-28T10:44:05.804Z,7896
2018-09-28T10:45:05.880Z,7464
2018-09-28T10:46:05.587Z,7212
2018-09-28T10:47:05.875Z,7172
2018-09-28T10:48:20.812Z,7220
2018-09-28T10:49:06.173Z,7264
2018-09-28T10:50:05.683Z,7952
2018-09-28T10:51:20.882Z,8836
2018-09-28T10:53:06.638Z,8528
2018-09-28T10:54:06.033Z,8244
2018-09-28T10:55:06.461Z,7988
2018-09-28T10:56:06.336Z,8016
2018-09-28T10:57:21.287Z,8312
2018-09-28T10:58:06.403Z,8428
2018-09-28T10:59:06.405Z,8700
2018-09-28T11:00:06.443Z,8812
2018-09-28T11:01:06.204Z,8384
2018-09-28T11:02:06.223Z,8420
2018-09-28T11:03:06.553Z,8312
2018-09-28T11:04:06.531Z,8044
2018-09-28T11:05:21.214Z,7864
2018-09-28T11:06:06.315Z,6408
2018-09-28T11:07:21.261Z,7488
2018-09-28T11:08:06.363Z,7232
2018-09-28T11:09:07.019Z,6692
2018-09-28T11:10:06.422Z,6232
2018-09-28T11:11:06.693Z,6612
2018-09-28T11:12:21.373Z,6712
2018-09-28T11:13:21.138Z,6832
2018-09-28T11:14:06.499Z,7136
2018-09-28T11:15:06.576Z,7540
2018-09-28T11:16:06.554Z,7584
2018-09-28T11:17:21.492Z,7212
2018-09-28T11:18:06.337Z,6924
2018-09-28T11:19:07.391Z,6312
2018-09-28T11:20:06.903Z,5956
2018-09-28T11:21:21.691Z,5748
2018-09-28T11:22:06.966Z,5688
2018-09-28T11:23:06.712Z,5888
2018-09-28T11:24:06.997Z,5740
2018-09-28T11:25:06.755Z,5280
2018-09-28T11:26:06.785Z,5140
2018-09-28T11:27:21.526Z,5208
2018-09-28T11:28:07.098Z,5496
2018-09-28T11:29:06.845Z,5744
2018-09-28T11:30:07.142Z,6332
2018-09-28T11:31:06.904Z,7428
2018-09-28T11:32:06.657Z,7904
2018-09-28T11:33:07.222Z,8072
2018-09-28T11:34:07.224Z,8236
2018-09-28T11:35:06.994Z,8024
2018-09-28T11:36:21.928Z,8424
2018-09-28T11:37:21.954Z,8644
2018-09-28T11:38:21.718Z,8852
2018-09-28T11:39:06.957Z,8964
2018-09-28T11:40:21.506Z,8440
2018-09-28T11:41:07.383Z,8964
2018-09-28T11:43:21.902Z,9056
2018-09-28T11:44:22.124Z,9048
2018-09-28T11:45:07.229Z,8656
2018-09-28T11:46:07.566Z,8816
2018-09-28T11:47:07.531Z,8616
2018-09-28T11:48:07.548Z,8948
2018-09-28T11:49:07.778Z,8840
2018-09-28T11:50:07.350Z,8936
2018-09-28T11:51:07.665Z,9344
2018-09-28T11:52:22.302Z,8892
2018-09-28T11:53:07.667Z,8952
2018-09-28T11:54:07.441Z,9268
2018-09-28T11:55:07.207Z,9440
2018-09-28T11:56:07.478Z,9920
2018-09-28T11:57:07.873Z,8048
2018-09-28T11:58:07.786Z,7680
2018-09-28T11:59:22.468Z,7336
2018-09-28T12:00:22.235Z,8632
2018-09-28T12:01:07.856Z,9296
2018-09-28T12:02:07.882Z,9084
2018-09-28T12:03:07.987Z,7584
2018-09-28T12:04:07.405Z,8708
2018-09-28T12:05:07.831Z,9704
2018-09-28T12:06:22.812Z,9644
2018-09-28T12:07:08.159Z,9664
2018-09-28T12:08:07.758Z,9284
2018-09-28T12:09:08.070Z,9512
2018-09-28T12:10:07.806Z,7880
2018-09-28T12:11:08.184Z,7792
2018-09-28T12:12:08.124Z,8108
2018-09-28T12:13:08.141Z,8916
2018-09-28T12:14:08.152Z,9168
2018-09-28T12:15:07.717Z,8580
2018-09-28T12:16:22.606Z,7884
2018-09-28T12:17:08.231Z,7908
2018-09-28T12:18:08.038Z,9220
2018-09-28T12:19:08.320Z,8660
2018-09-28T12:20:08.417Z,9136
2018-09-28T12:21:08.357Z,8812
2018-09-28T12:22:08.093Z,7304
2018-09-28T12:23:08.372Z,7916
2018-09-28T12:24:08.487Z,7172
2018-09-28T12:25:08.421Z,7564
2018-09-28T12:26:08.439Z,7304
2018-09-28T12:27:08.523Z,6952
2018-09-28T12:28:08.503Z,6936
2018-09-28T12:29:08.252Z,7012
2018-09-28T12:30:08.324Z,7240
2018-09-28T12:31:08.556Z,7208
2018-09-28T12:32:22.983Z,6804
2018-09-28T12:34:08.626Z,5984
2018-09-28T12:35:23.362Z,6368
2018-09-28T12:36:08.168Z,6212
2018-09-28T12:37:08.429Z,6044
2018-09-28T12:38:08.204Z,6196
2018-09-28T12:39:08.764Z,6140
2018-09-28T12:40:08.890Z,6092
2018-09-28T12:41:08.790Z,6036
2018-09-28T12:43:08.586Z,7408
2018-09-28T12:44:08.632Z,7320
2018-09-28T12:45:09.595Z,6724
2018-09-28T12:46:23.313Z,7212
2018-09-28T12:47:23.592Z,7160
2018-09-28T12:48:09.032Z,7080
2018-09-28T12:49:08.983Z,6988
2018-09-28T12:50:08.488Z,6896
2018-09-28T12:51:08.766Z,6812
2018-09-28T12:52:09.053Z,4492
2018-09-28T12:53:09.076Z,6736
2018-09-28T12:54:09.128Z,6896
2018-09-28T12:55:23.776Z,6908
2018-09-28T12:56:09.221Z,6492
2018-09-28T12:57:08.651Z,6904
2018-09-28T12:58:08.925Z,6864
2018-09-28T12:59:08.947Z,6852
2018-09-28T13:00:23.722Z,4488
2018-09-28T13:01:10.275Z,4604
2018-09-28T13:02:09.039Z,6472
2018-09-28T13:03:09.057Z,6572
2018-09-28T13:04:09.063Z,6724
2018-09-28T13:05:23.751Z,6856
2018-09-28T13:06:09.198Z,6836
2018-09-28T13:07:08.878Z,6868
2018-09-28T13:08:23.953Z,6880
2018-09-28T13:09:09.443Z,6536
2018-09-28T13:10:08.947Z,6160
2018-09-28T13:11:09.228Z,6736
2018-09-28T13:12:09.052Z,6100
2018-09-28T13:13:23.933Z,5772
2018-09-28T13:14:09.337Z,6464
2018-09-28T13:15:09.948Z,5240
2018-09-28T13:16:09.084Z,5216
2018-09-28T13:17:09.367Z,4560
2018-09-28T13:19:24.328Z,7180
2018-09-28T13:20:24.224Z,7584
2018-09-28T13:21:09.542Z,7656
2018-09-28T13:22:09.479Z,7840
2018-09-28T13:23:09.500Z,5768
2018-09-28T13:24:09.604Z,8032
2018-09-28T13:25:09.396Z,5456
2018-09-28T13:26:09.340Z,7912
2018-09-28T13:27:09.909Z,7020
2018-09-28T13:28:24.538Z,6288
2018-09-28T13:30:09.743Z,5180
2018-09-28T13:31:09.691Z,4844
2018-09-28T13:32:09.855Z,7080
2018-09-28T13:33:09.733Z,6232
2018-09-28T13:34:09.757Z,5316
2018-09-28T13:35:24.697Z,6272
2018-09-28T13:36:10.262Z,6216
2018-09-28T13:38:09.908Z,6348
2018-09-28T13:39:24.722Z,6812
2018-09-28T13:40:24.296Z,6988
2018-09-28T13:41:10.182Z,7028
2018-09-28T13:43:24.883Z,7064
2018-09-28T13:44:25.192Z,7168
2018-09-28T13:45:10.604Z,7236
2018-09-28T13:46:10.841Z,7412
2018-09-28T13:47:10.061Z,7736
2018-09-28T13:48:10.154Z,7864
2018-09-28T13:49:10.109Z,7156
2018-09-28T13:50:09.999Z,6456
2018-09-28T13:51:24.810Z,5896
2018-09-28T13:52:10.842Z,6232
2018-09-28T13:53:10.451Z,5868
2018-09-28T13:54:10.287Z,5948
2018-09-28T13:55:24.900Z,6044
2018-09-28T13:57:10.545Z,6156
2018-09-28T13:58:10.715Z,6156
2018-09-28T13:59:25.251Z,6216
2018-09-28T14:00:10.439Z,6420
2018-09-28T14:01:10.384Z,6652
2018-09-28T14:02:10.752Z,6724
2018-09-28T14:03:10.485Z,5888
2018-09-28T14:04:10.486Z,5692
2018-09-28T14:05:10.474Z,5612
2018-09-28T14:06:10.870Z,5636
2018-09-28T14:07:25.433Z,5948
2018-09-28T14:08:10.638Z,5580
2018-09-28T14:09:10.817Z,5752
2018-09-28T14:10:10.645Z,5608
2018-09-28T14:11:25.268Z,5512
2018-09-28T14:12:10.772Z,5540
2018-09-28T14:13:10.753Z,5568
2018-09-28T14:14:10.745Z,5492
2018-09-28T14:15:25.357Z,5312
2018-09-28T14:17:11.002Z,5032
2018-09-28T14:18:11.146Z,4876
2018-09-28T14:19:11.043Z,4796
2018-09-28T14:20:26.039Z,4856
2018-09-28T14:21:10.835Z,5740
2018-09-28T14:22:25.730Z,4796
2018-09-28T14:23:11.190Z,6060
2018-09-28T14:24:11.251Z,6040
2018-09-28T14:25:11.185Z,5604
2018-09-28T14:26:11.328Z,5392
2018-09-28T14:27:11.228Z,5264
2018-09-28T14:29:25.941Z,5528
2018-09-28T14:30:11.106Z,5496
2018-09-28T14:31:25.978Z,6144
2018-09-28T14:32:26.220Z,6548
2018-09-28T14:33:11.367Z,5124
2018-09-28T14:34:11.567Z,4612
2018-09-28T14:35:11.155Z,4544